Terminal Aerodrome Forecast
Issued by NWS

Home | Current Version | Previous Version | Text Only | Print | Product List | Glossary On
Versions: 1 2 3 4 5 6 7 8 9 10 11 12 13 14 15 16 17 18 19 20 21 22 23 24
398
FTUS43 KABR 282053 AAA
TAFPIR
TAF AMD
KPIR 282053Z 2821/2918 08008KT P6SM BKN050 OVC090
     FM282105 09009KT P6SM VCTS BKN050CB
     FM282300 10008KT P6SM BKN050
     FM291300 11009KT P6SM BKN070=

USA.gov is the U.S. government's official web portal to all federal, state and local government web resources and services.